createdAt,value
2023-05-03T00:13:38.571Z,6.58
2023-05-03T00:28:29.878Z,8.67
2023-05-03T00:43:21.203Z,7.68
2023-05-03T00:58:12.486Z,7.51
2023-05-03T01:13:24.268Z,7.26
2023-05-03T01:28:20.532Z,9.36
2023-05-03T01:43:11.180Z,9.79
2023-05-03T01:58:02.911Z,8.11
2023-05-03T02:12:53.929Z,10.18
2023-05-03T02:27:56.566Z,12.07
2023-05-03T02:42:43.709Z,11.20
2023-05-03T02:57:35.481Z,9.68
2023-05-03T03:12:27.014Z,12.40
2023-05-03T03:27:16.984Z,9.88
2023-05-03T03:42:08.287Z,13.93
2023-05-03T03:57:00.833Z,13.88
2023-05-03T04:11:51.324Z,11.57
2023-05-03T04:26:42.176Z,15.13
2023-05-03T04:41:34.336Z,11.24
2023-05-03T05:11:15.812Z,13.30
2023-05-03T05:26:07.206Z,13.07
2023-05-03T05:40:59.658Z,11.36
2023-05-03T05:55:51.767Z,16.00
2023-05-03T06:10:45.099Z,11.92
2023-05-03T06:25:36.858Z,10.27
2023-05-03T06:40:30.614Z,11.70
2023-05-03T06:55:24.351Z,10.98
2023-05-03T07:10:17.792Z,10.50
2023-05-03T07:25:09.946Z,10.63
2023-05-03T07:40:05.455Z,9.92
2023-05-03T07:54:57.374Z,10.30
2023-05-03T08:09:49.680Z,13.22
2023-05-03T08:24:42.101Z,11.13
2023-05-03T08:39:35.792Z,11.10
2023-05-03T08:54:28.876Z,11.87
2023-05-03T09:09:21.300Z,8.67
2023-05-03T09:24:19.937Z,9.46
2023-05-03T09:39:17.425Z,10.36
2023-05-03T09:54:10.761Z,12.51
2023-05-03T10:09:20.987Z,10.40
2023-05-03T10:24:19.591Z,9.29
2023-05-03T10:39:16.497Z,8.96
2023-05-03T10:54:12.841Z,8.13
2023-05-03T11:09:05.016Z,7.13
2023-05-03T11:23:56.312Z,6.28
2023-05-03T11:38:49.233Z,9.57
2023-05-03T11:53:43.003Z,9.27
2023-05-03T12:08:37.599Z,7.10
2023-05-03T12:23:27.972Z,6.14
2023-05-03T12:38:23.655Z,6.61
2023-05-03T12:53:16.984Z,6.55
2023-05-03T13:08:10.176Z,7.72
2023-05-03T13:22:59.686Z,5.11
2023-05-03T13:37:54.000Z,6.01
2023-05-03T13:52:45.593Z,5.53
2023-05-03T14:07:40.736Z,4.19
2023-05-03T14:22:37.910Z,5.12
2023-05-03T14:37:35.765Z,4.42
2023-05-03T14:52:33.438Z,6.42
2023-05-03T15:07:29.619Z,4.86
2023-05-03T15:22:22.820Z,3.58
2023-05-03T15:37:14.152Z,3.59
2023-05-03T15:52:09.201Z,3.81
2023-05-03T16:06:58.147Z,5.31
2023-05-03T16:21:41.896Z,5.06
2023-05-03T16:36:30.790Z,4.26
2023-05-03T16:51:22.292Z,3.61
2023-05-03T17:21:05.865Z,4.07
2023-05-03T17:50:49.841Z,5.84
2023-05-03T18:05:40.882Z,3.30
2023-05-03T18:20:31.944Z,6.28
2023-05-03T18:35:24.736Z,4.73
2023-05-03T19:20:03.446Z,3.64
2023-05-03T20:04:36.065Z,3.82
2023-05-03T20:19:29.160Z,3.07
2023-05-03T20:34:19.239Z,4.00
2023-05-03T20:49:11.772Z,3.58
2023-05-03T21:04:04.610Z,4.02
2023-05-03T21:18:56.916Z,3.91
2023-05-03T21:33:48.279Z,3.64
2023-05-03T21:48:39.733Z,4.34
2023-05-03T22:03:32.415Z,4.04
2023-05-03T22:18:22.801Z,3.98
2023-05-03T22:33:13.672Z,4.11
2023-05-03T22:48:05.211Z,3.72
2023-05-03T23:02:57.024Z,3.83
2023-05-03T23:17:48.681Z,4.23
2023-05-03T23:32:42.240Z,4.47
2023-05-03T23:47:34.361Z,3.73
